createdAt,value
2022-08-19T00:02:19.706Z,12.32
2022-08-19T00:04:53.421Z,13.57
2022-08-19T00:07:22.050Z,10.85
2022-08-19T00:09:51.320Z,15.10
2022-08-19T00:12:20.639Z,9.23
2022-08-19T00:14:48.658Z,10.50
2022-08-19T00:17:17.577Z,11.38
2022-08-19T00:19:45.484Z,10.65
2022-08-19T00:22:13.427Z,9.95
2022-08-19T00:24:42.206Z,17.65
2022-08-19T00:27:26.221Z,8.60
2022-08-19T00:29:54.962Z,8.80
2022-08-19T00:32:23.938Z,8.05
2022-08-19T00:34:52.783Z,11.27
2022-08-19T00:37:20.748Z,12.32
2022-08-19T00:39:49.214Z,9.02
2022-08-19T00:42:17.738Z,12.25
2022-08-19T00:44:48.968Z,13.48
2022-08-19T00:47:17.035Z,10.27
2022-08-19T00:49:52.625Z,16.45
2022-08-19T00:52:24.783Z,8.98
2022-08-19T00:54:54.070Z,14.98
2022-08-19T00:57:24.872Z,9.48
2022-08-19T01:00:02.524Z,11.65
2022-08-19T01:02:32.494Z,10.50
2022-08-19T01:05:01.245Z,9.35
2022-08-19T01:07:29.307Z,12.82
2022-08-19T01:10:06.271Z,12.23
2022-08-19T01:12:35.234Z,13.40
2022-08-19T01:15:05.045Z,9.25
2022-08-19T01:17:33.386Z,9.45
2022-08-19T01:20:01.281Z,10.77
2022-08-19T01:22:33.880Z,11.75
2022-08-19T01:25:02.274Z,13.25
2022-08-19T01:27:42.873Z,10.43
2022-08-19T01:30:13.802Z,8.35
2022-08-19T01:32:41.795Z,9.48
2022-08-19T01:35:10.349Z,8.40
2022-08-19T01:37:46.485Z,13.15
2022-08-19T01:40:14.913Z,13.95
2022-08-19T01:42:43.252Z,10.70
2022-08-19T01:45:11.906Z,9.13
2022-08-19T01:47:40.147Z,12.23
2022-08-19T01:50:09.049Z,10.85
2022-08-19T01:52:37.982Z,12.20
2022-08-19T01:55:08.718Z,10.15
2022-08-19T01:57:37.019Z,11.18
2022-08-19T02:00:07.583Z,9.32
2022-08-19T02:02:39.275Z,8.70
2022-08-19T02:05:08.199Z,10.50
2022-08-19T02:07:41.222Z,9.38
2022-08-19T02:10:12.549Z,9.30
2022-08-19T02:12:41.458Z,10.95
2022-08-19T02:15:09.698Z,9.45
2022-08-19T02:17:37.580Z,11.48
2022-08-19T02:20:06.127Z,11.40
2022-08-19T02:22:34.426Z,13.05
2022-08-19T02:25:02.534Z,12.15
2022-08-19T02:27:34.472Z,15.85
2022-08-19T02:30:02.783Z,13.18
2022-08-19T02:32:31.782Z,10.13
2022-08-19T02:34:59.811Z,11.07
2022-08-19T02:37:45.832Z,10.93
2022-08-19T02:40:13.965Z,10.95
2022-08-19T02:42:43.747Z,9.40
2022-08-19T02:45:11.952Z,9.40
2022-08-19T02:47:39.868Z,10.98
2022-08-19T02:50:26.803Z,12.18
2022-08-19T02:52:54.786Z,11.00
2022-08-19T02:55:22.991Z,16.17
2022-08-19T02:57:52.307Z,11.68
2022-08-19T03:00:20.285Z,11.10
2022-08-19T03:02:49.869Z,10.00
2022-08-19T03:05:18.236Z,12.98
2022-08-19T03:07:56.731Z,16.15
2022-08-19T03:10:24.619Z,12.65
2022-08-19T03:12:54.195Z,11.57
2022-08-19T03:15:22.297Z,12.20
2022-08-19T03:17:50.172Z,14.05
2022-08-19T03:20:18.367Z,12.23
2022-08-19T03:22:46.626Z,21.98
2022-08-19T03:25:14.527Z,16.30
2022-08-19T03:27:42.367Z,11.10
2022-08-19T03:30:12.561Z,9.98
2022-08-19T03:32:45.293Z,10.90
2022-08-19T03:35:13.537Z,9.98
2022-08-19T03:37:42.149Z,16.35
2022-08-19T03:40:10.536Z,11.45
2022-08-19T03:42:58.644Z,13.10
2022-08-19T03:45:28.496Z,10.95
2022-08-19T03:47:57.147Z,15.32
2022-08-19T03:50:25.422Z,13.48
2022-08-19T03:52:53.862Z,17.45
2022-08-19T03:55:22.350Z,12.50
2022-08-19T03:57:50.267Z,18.73
2022-08-19T04:00:19.043Z,12.77
2022-08-19T04:02:56.559Z,12.05
2022-08-19T04:05:29.472Z,12.75
2022-08-19T04:08:00.106Z,14.30
2022-08-19T04:10:28.788Z,13.35
2022-08-19T04:12:56.723Z,13.52
2022-08-19T04:15:24.919Z,19.17
2022-08-19T04:17:54.179Z,14.38
2022-08-19T04:20:22.538Z,18.63
2022-08-19T04:22:50.396Z,12.50
2022-08-19T04:25:18.369Z,12.02
2022-08-19T04:27:47.494Z,18.48
2022-08-19T04:30:15.874Z,17.92
2022-08-19T04:32:44.727Z,13.07
2022-08-19T04:35:16.920Z,11.18
2022-08-19T04:37:46.808Z,15.35
2022-08-19T04:40:32.064Z,14.55
2022-08-19T04:43:00.000Z,13.18
2022-08-19T04:45:27.809Z,13.45
2022-08-19T04:48:26.223Z,17.60
2022-08-19T04:53:21.175Z,11.48
2022-08-19T04:55:49.037Z,12.95
2022-08-19T04:58:17.524Z,16.73
2022-08-19T05:00:45.687Z,10.88
2022-08-19T05:03:14.134Z,14.95
2022-08-19T05:05:44.616Z,17.42
2022-08-19T05:08:14.170Z,15.20
2022-08-19T05:10:44.635Z,9.80
2022-08-19T05:13:12.861Z,15.18
2022-08-19T05:15:41.082Z,13.07
2022-08-19T05:18:34.736Z,16.75
2022-08-19T05:21:24.573Z,12.65
2022-08-19T05:23:52.504Z,14.93
2022-08-19T05:26:21.728Z,17.02
2022-08-19T05:28:52.986Z,15.98
2022-08-19T05:31:23.272Z,10.20
2022-08-19T05:33:51.597Z,11.98
2022-08-19T05:36:21.029Z,10.23
2022-08-19T05:38:51.255Z,14.57
2022-08-19T05:41:19.390Z,12.13
2022-08-19T05:43:51.759Z,18.30
2022-08-19T05:46:27.935Z,13.10
2022-08-19T05:48:57.552Z,16.08
2022-08-19T05:51:29.473Z,19.77
2022-08-19T05:53:57.428Z,15.85
2022-08-19T05:56:25.370Z,12.50
2022-08-19T05:58:55.211Z,16.70
2022-08-19T06:01:23.356Z,13.88
2022-08-19T06:03:51.390Z,14.57
2022-08-19T06:06:22.070Z,18.63
2022-08-19T06:08:51.990Z,17.70
2022-08-19T06:11:22.612Z,12.55
2022-08-19T06:13:59.398Z,12.63
2022-08-19T06:16:31.766Z,15.48
2022-08-19T06:19:01.825Z,13.05
2022-08-19T06:21:31.664Z,12.68
2022-08-19T06:24:01.111Z,16.20
2022-08-19T06:26:29.284Z,16.80
2022-08-19T06:28:57.790Z,22.35
2022-08-19T06:31:27.711Z,15.38
2022-08-19T06:33:57.016Z,9.77
2022-08-19T06:36:28.156Z,12.23
2022-08-19T06:38:56.868Z,21.10
2022-08-19T06:41:24.862Z,12.88
2022-08-19T06:43:55.764Z,22.88
2022-08-19T06:46:24.752Z,13.10
2022-08-19T06:48:54.715Z,14.85
2022-08-19T06:51:25.128Z,14.43
2022-08-19T06:53:54.125Z,11.02
2022-08-19T06:56:27.045Z,16.77
2022-08-19T06:58:55.146Z,15.80
2022-08-19T07:01:31.259Z,10.68
2022-08-19T07:03:59.515Z,15.10
2022-08-19T07:06:44.853Z,11.75
2022-08-19T07:09:14.509Z,17.50
2022-08-19T07:11:47.250Z,12.40
2022-08-19T07:14:20.852Z,9.88
2022-08-19T07:16:49.573Z,11.77
2022-08-19T07:19:18.824Z,15.50
2022-08-19T07:21:49.469Z,12.50
2022-08-19T07:24:19.079Z,14.35
2022-08-19T07:26:51.901Z,13.60
2022-08-19T07:29:21.526Z,7.50
2022-08-19T07:31:52.217Z,9.00
2022-08-19T07:34:20.834Z,13.25
2022-08-19T07:36:50.447Z,15.82
2022-08-19T07:39:20.880Z,11.98
2022-08-19T07:41:49.127Z,9.88
2022-08-19T07:44:17.431Z,9.52
2022-08-19T07:46:48.172Z,9.25
2022-08-19T07:49:20.174Z,11.80
2022-08-19T07:51:48.935Z,17.40
2022-08-19T07:54:19.018Z,12.45
2022-08-19T07:56:47.194Z,12.63
2022-08-19T07:59:15.113Z,11.25
2022-08-19T08:01:43.194Z,10.98
2022-08-19T08:04:28.632Z,8.98
2022-08-19T08:07:14.029Z,8.18
2022-08-19T08:09:44.604Z,13.60
2022-08-19T08:12:33.527Z,13.70
2022-08-19T08:15:03.825Z,8.50
2022-08-19T08:17:48.603Z,15.10
2022-08-19T08:20:18.261Z,16.20
2022-08-19T08:23:03.740Z,12.55
2022-08-19T08:25:34.325Z,16.58
2022-08-19T08:28:02.406Z,14.95
2022-08-19T08:30:32.825Z,18.33
2022-08-19T08:33:00.962Z,9.95
2022-08-19T08:35:30.708Z,7.82
2022-08-19T08:37:58.602Z,7.47
2022-08-19T08:40:30.218Z,11.57
2022-08-19T08:45:30.718Z,8.57
2022-08-19T08:48:23.857Z,14.70
2022-08-19T08:50:53.749Z,11.02
2022-08-19T08:53:26.317Z,11.93
2022-08-19T08:55:59.036Z,7.88
2022-08-19T08:58:31.890Z,9.45
2022-08-19T09:00:59.782Z,13.65
2022-08-19T09:03:31.574Z,18.88
2022-08-19T09:06:02.552Z,8.23
2022-08-19T09:08:35.191Z,10.25
2022-08-19T09:11:06.388Z,7.13
2022-08-19T09:13:41.112Z,17.75
2022-08-19T09:16:10.105Z,17.33
2022-08-19T09:18:41.729Z,8.85
2022-08-19T09:21:09.937Z,18.75
2022-08-19T09:23:38.636Z,21.25
2022-08-19T09:26:10.370Z,13.88
2022-08-19T09:28:44.361Z,11.52
2022-08-19T09:31:17.888Z,9.85
2022-08-19T09:33:47.249Z,9.07
2022-08-19T09:36:23.494Z,7.78
2022-08-19T09:39:02.638Z,19.67
2022-08-19T09:41:30.710Z,9.80
2022-08-19T09:44:00.465Z,9.85
2022-08-19T09:46:31.568Z,11.23
2022-08-19T09:49:06.169Z,8.18
2022-08-19T09:51:35.193Z,10.48
2022-08-19T09:54:05.251Z,10.07
2022-08-19T09:56:34.906Z,6.32
2022-08-19T09:59:05.772Z,9.05
2022-08-19T10:01:34.300Z,13.27
2022-08-19T10:04:07.553Z,29.33
2022-08-19T10:06:46.843Z,17.25
2022-08-19T10:09:15.728Z,14.13
2022-08-19T10:11:52.583Z,8.23
2022-08-19T10:14:24.744Z,9.57
2022-08-19T10:16:53.130Z,8.23
2022-08-19T10:19:25.607Z,9.55
2022-08-19T10:21:55.649Z,8.00
2022-08-19T10:24:29.733Z,10.68
2022-08-19T10:26:59.573Z,8.98
2022-08-19T10:29:32.990Z,15.65
2022-08-19T10:32:02.854Z,12.13
2022-08-19T10:34:31.732Z,12.57
2022-08-19T10:37:01.907Z,7.70
2022-08-19T10:39:31.439Z,5.32
2022-08-19T10:42:00.836Z,9.70
2022-08-19T10:44:32.585Z,11.07
2022-08-19T10:47:01.084Z,8.55
2022-08-19T10:49:29.014Z,8.88
2022-08-19T10:52:19.086Z,15.80
2022-08-19T10:55:08.235Z,10.23
2022-08-19T11:00:26.863Z,10.88
2022-08-19T11:02:54.822Z,9.48
2022-08-19T11:05:24.317Z,8.82
2022-08-19T11:07:53.142Z,7.88
2022-08-19T11:10:22.200Z,9.23
2022-08-19T11:12:55.229Z,8.77
2022-08-19T11:15:23.444Z,9.40
2022-08-19T11:17:55.252Z,12.40
2022-08-19T11:20:24.754Z,10.57
2022-08-19T11:22:53.639Z,7.28
2022-08-19T11:25:21.544Z,7.70
2022-08-19T11:27:52.131Z,11.20
2022-08-19T11:30:20.123Z,10.15
2022-08-19T11:32:49.628Z,10.73
2022-08-19T11:35:21.205Z,13.05
2022-08-19T11:37:56.416Z,10.30
2022-08-19T11:40:24.355Z,12.25
2022-08-19T11:42:58.053Z,15.65
2022-08-19T11:45:27.381Z,13.82
2022-08-19T11:47:56.565Z,16.13
2022-08-19T11:50:25.955Z,10.93
2022-08-19T11:52:55.687Z,14.20
2022-08-19T11:55:24.054Z,10.55
2022-08-19T11:57:52.033Z,8.13
2022-08-19T12:00:20.072Z,17.20
2022-08-19T12:02:48.361Z,13.38
2022-08-19T12:05:16.297Z,18.35
2022-08-19T12:07:46.310Z,20.27
2022-08-19T12:10:14.276Z,22.20
2022-08-19T12:12:54.680Z,20.73
2022-08-19T12:15:28.921Z,7.95
2022-08-19T12:18:05.912Z,9.10
2022-08-19T12:20:36.355Z,21.27
2022-08-19T12:23:05.870Z,20.45
2022-08-19T12:25:34.133Z,19.15
2022-08-19T12:28:02.447Z,17.67
2022-08-19T12:30:31.440Z,12.85
2022-08-19T12:33:00.187Z,11.75
2022-08-19T12:35:28.380Z,28.30
2022-08-19T12:37:57.632Z,14.57
2022-08-19T12:40:27.569Z,16.20
2022-08-19T12:42:55.570Z,17.80
2022-08-19T12:45:23.779Z,11.35
2022-08-19T12:47:54.851Z,22.35
2022-08-19T12:50:23.335Z,15.43
2022-08-19T12:52:51.483Z,12.25
2022-08-19T12:55:20.290Z,14.27
2022-08-19T12:57:50.050Z,14.35
2022-08-19T13:00:19.514Z,15.30
2022-08-19T13:02:50.685Z,16.00
2022-08-19T13:05:21.032Z,15.68
2022-08-19T13:07:49.507Z,16.38
2022-08-19T13:10:18.613Z,23.08
2022-08-19T13:12:47.488Z,25.92
2022-08-19T13:15:21.722Z,17.88
2022-08-19T13:17:52.312Z,23.23
2022-08-19T13:20:21.284Z,20.02
2022-08-19T13:22:49.420Z,13.80
2022-08-19T13:25:20.592Z,17.48
2022-08-19T13:27:49.700Z,18.60
2022-08-19T13:30:36.962Z,13.65
2022-08-19T13:33:15.953Z,17.17
2022-08-19T13:35:45.283Z,14.75
2022-08-19T13:38:13.722Z,18.42
2022-08-19T13:40:42.138Z,17.88
2022-08-19T13:43:23.104Z,13.23
2022-08-19T13:45:54.867Z,16.95
2022-08-19T13:48:23.000Z,20.17
2022-08-19T13:50:50.987Z,17.42
2022-08-19T13:53:19.846Z,17.08
2022-08-19T13:55:47.954Z,19.75
2022-08-19T13:58:16.175Z,9.35
2022-08-19T14:00:45.832Z,14.30
2022-08-19T14:03:15.441Z,38.42
2022-08-19T14:05:43.761Z,36.42
2022-08-19T14:08:13.295Z,29.45
2022-08-19T14:10:42.132Z,36.05
2022-08-19T14:13:10.040Z,40.08
2022-08-19T14:15:38.280Z,37.78
2022-08-19T14:18:06.278Z,36.58
2022-08-19T14:20:37.202Z,30.73
2022-08-19T14:23:06.156Z,25.20
2022-08-19T14:25:34.984Z,24.65
2022-08-19T14:28:05.126Z,21.33
2022-08-19T14:30:34.332Z,13.57
2022-08-19T14:33:03.309Z,12.38
2022-08-19T14:35:33.645Z,14.02
2022-08-19T14:38:03.906Z,16.33
2022-08-19T14:40:32.611Z,18.40
2022-08-19T14:43:04.833Z,21.40
2022-08-19T14:45:33.792Z,20.40
2022-08-19T14:48:02.101Z,17.55
2022-08-19T14:50:30.202Z,18.05
2022-08-19T14:53:12.494Z,20.58
2022-08-19T14:55:43.507Z,13.85
2022-08-19T14:58:29.582Z,15.85
2022-08-19T15:00:59.333Z,20.58
2022-08-19T15:03:27.222Z,14.27
2022-08-19T15:05:56.572Z,14.45
2022-08-19T15:08:26.520Z,29.60
2022-08-19T15:10:55.128Z,19.98
2022-08-19T15:13:23.423Z,18.75
2022-08-19T15:15:52.702Z,14.57
2022-08-19T15:18:21.370Z,15.68
2022-08-19T15:20:49.398Z,29.75
2022-08-19T15:23:18.695Z,17.05
2022-08-19T15:25:48.212Z,15.27
2022-08-19T15:28:17.511Z,14.05
2022-08-19T15:30:45.666Z,17.23
2022-08-19T15:33:17.301Z,17.10
2022-08-19T15:35:47.244Z,18.88
2022-08-19T15:38:16.213Z,22.63
2022-08-19T15:40:45.767Z,16.33
2022-08-19T15:43:15.362Z,14.93
2022-08-19T15:45:46.329Z,14.98
2022-08-19T15:48:17.210Z,14.05
2022-08-19T15:50:45.094Z,17.63
2022-08-19T15:53:16.536Z,15.77
2022-08-19T15:55:47.593Z,15.60
2022-08-19T15:58:34.249Z,12.75
2022-08-19T16:01:21.337Z,21.10
2022-08-19T16:04:14.167Z,21.02
2022-08-19T16:06:44.985Z,14.40
2022-08-19T16:09:22.251Z,20.00
2022-08-19T16:11:56.792Z,16.17
2022-08-19T16:14:29.358Z,12.60
2022-08-19T16:16:57.568Z,18.85
2022-08-19T16:19:25.638Z,10.65
2022-08-19T16:21:54.580Z,31.95
2022-08-19T16:24:23.891Z,25.25
2022-08-19T16:26:52.094Z,16.95
2022-08-19T16:29:34.074Z,20.67
2022-08-19T16:32:10.174Z,17.10
2022-08-19T16:34:39.190Z,16.38
2022-08-19T16:37:07.283Z,20.08
2022-08-19T16:39:35.302Z,13.05
2022-08-19T16:42:03.602Z,21.02
2022-08-19T16:44:37.071Z,17.75
2022-08-19T16:47:05.727Z,27.95
2022-08-19T16:49:53.884Z,26.98
2022-08-19T16:52:27.083Z,19.55
2022-08-19T16:54:56.869Z,18.35
2022-08-19T16:57:25.153Z,22.20
2022-08-19T16:59:53.557Z,15.63
2022-08-19T17:02:22.970Z,18.40
2022-08-19T17:04:58.383Z,15.65
2022-08-19T17:07:27.251Z,14.85
2022-08-19T17:09:55.439Z,19.75
2022-08-19T17:12:31.749Z,18.00
2022-08-19T17:15:01.022Z,18.20
2022-08-19T17:17:29.740Z,17.63
2022-08-19T17:19:59.449Z,23.08
2022-08-19T17:22:27.635Z,16.63
2022-08-19T17:24:56.415Z,15.32
2022-08-19T17:27:26.347Z,17.23
2022-08-19T17:29:59.879Z,16.23
2022-08-19T17:32:28.456Z,21.23
2022-08-19T17:34:56.450Z,18.50
2022-08-19T17:37:25.784Z,20.60
2022-08-19T17:39:54.015Z,16.23
2022-08-19T17:42:22.182Z,13.88
2022-08-19T17:44:50.455Z,16.88
2022-08-19T17:47:19.448Z,19.00
2022-08-19T17:49:47.563Z,18.17
2022-08-19T17:52:15.909Z,20.33
2022-08-19T17:54:48.012Z,23.27
2022-08-19T17:57:16.015Z,31.02
2022-08-19T17:59:43.952Z,13.18
2022-08-19T18:02:12.887Z,17.23
2022-08-19T18:04:43.415Z,13.25
2022-08-19T18:07:17.178Z,24.02
2022-08-19T18:09:49.507Z,18.77
2022-08-19T18:12:18.014Z,26.20
2022-08-19T18:14:46.712Z,22.08
2022-08-19T18:17:17.422Z,15.63
2022-08-19T18:19:45.616Z,20.38
2022-08-19T18:22:17.274Z,22.85
2022-08-19T18:24:46.602Z,38.95
2022-08-19T18:27:14.670Z,20.08
2022-08-19T18:29:43.474Z,21.65
2022-08-19T18:32:13.767Z,38.05
2022-08-19T18:34:42.188Z,27.23
2022-08-19T18:37:10.332Z,18.25
2022-08-19T18:39:55.660Z,22.92
2022-08-19T18:42:42.671Z,30.27
2022-08-19T18:45:28.103Z,36.17
2022-08-19T18:48:25.805Z,27.35
2022-08-19T18:50:56.152Z,22.98
2022-08-19T18:53:23.951Z,25.85
2022-08-19T18:55:54.052Z,27.67
2022-08-19T18:58:26.386Z,14.63
2022-08-19T19:00:56.990Z,18.75
2022-08-19T19:03:25.809Z,20.02
2022-08-19T19:05:54.070Z,29.20
2022-08-19T19:08:27.100Z,21.20
2022-08-19T19:10:56.367Z,22.55
2022-08-19T19:13:28.828Z,23.63
2022-08-19T19:15:56.983Z,28.30
2022-08-19T19:18:25.217Z,25.23
2022-08-19T19:20:53.236Z,18.17
2022-08-19T19:23:21.948Z,15.95
2022-08-19T19:25:51.372Z,14.45
2022-08-19T19:28:28.149Z,18.27
2022-08-19T19:30:59.193Z,21.90
2022-08-19T19:33:27.642Z,22.52
2022-08-19T19:35:55.570Z,20.15
2022-08-19T19:38:23.591Z,24.20
2022-08-19T19:40:51.490Z,22.10
2022-08-19T19:43:19.450Z,15.48
2022-08-19T19:45:48.354Z,18.42
2022-08-19T19:48:17.727Z,18.40
2022-08-19T19:50:46.284Z,19.77
2022-08-19T19:53:22.265Z,18.25
2022-08-19T19:55:51.708Z,19.13
2022-08-19T19:58:28.311Z,28.25
2022-08-19T20:00:57.258Z,21.50
2022-08-19T20:03:26.560Z,18.33
2022-08-19T20:05:55.040Z,23.05
2022-08-19T20:08:40.480Z,19.52
2022-08-19T20:11:08.829Z,18.17
2022-08-19T20:13:38.001Z,45.53
2022-08-19T20:16:06.326Z,30.63
2022-08-19T20:18:35.587Z,31.15
2022-08-19T20:21:03.587Z,26.52
2022-08-19T20:23:31.626Z,38.50
2022-08-19T20:26:00.735Z,32.35
2022-08-19T20:28:28.801Z,29.98
2022-08-19T20:30:58.499Z,25.55
2022-08-19T20:33:26.572Z,32.80
2022-08-19T20:35:55.864Z,25.17
2022-08-19T20:38:23.808Z,29.13
2022-08-19T20:40:53.222Z,27.02
2022-08-19T20:43:21.118Z,22.85
2022-08-19T20:45:49.038Z,22.40
2022-08-19T20:48:17.026Z,30.88
2022-08-19T20:50:45.019Z,20.13
2022-08-19T20:53:15.599Z,30.80
2022-08-19T20:55:45.463Z,20.10
2022-08-19T20:58:13.805Z,18.92
2022-08-19T21:00:46.046Z,21.92
2022-08-19T21:03:15.595Z,19.92
2022-08-19T21:05:43.691Z,16.48
2022-08-19T21:08:11.530Z,27.05
2022-08-19T21:10:42.448Z,20.25
2022-08-19T21:13:10.579Z,16.77
2022-08-19T21:15:40.743Z,30.17
2022-08-19T21:18:09.148Z,18.00
2022-08-19T21:20:37.101Z,13.43
2022-08-19T21:23:05.570Z,17.98
2022-08-19T21:25:33.459Z,23.90
2022-08-19T21:28:02.780Z,14.05
2022-08-19T21:30:30.937Z,15.70
2022-08-19T21:33:00.561Z,17.33
2022-08-19T21:35:28.652Z,16.10
2022-08-19T21:37:57.587Z,18.00
2022-08-19T21:40:25.659Z,26.02
2022-08-19T21:42:53.858Z,19.80
2022-08-19T21:45:23.885Z,20.85
2022-08-19T21:47:51.779Z,12.90
2022-08-19T21:50:20.247Z,14.90
2022-08-19T21:52:48.151Z,18.55
2022-08-19T21:55:18.060Z,18.85
2022-08-19T21:57:45.958Z,20.08
2022-08-19T22:00:17.082Z,16.52
2022-08-19T22:02:48.108Z,15.65
2022-08-19T22:05:17.547Z,14.95
2022-08-19T22:07:45.446Z,20.13
2022-08-19T22:10:13.344Z,13.25
2022-08-19T22:12:47.303Z,15.25
2022-08-19T22:15:21.201Z,16.40
2022-08-19T22:17:50.941Z,12.50
2022-08-19T22:20:19.758Z,14.18
2022-08-19T22:22:49.263Z,21.75
2022-08-19T22:25:29.977Z,17.65
2022-08-19T22:28:01.554Z,20.85
2022-08-19T22:30:33.138Z,13.02
2022-08-19T22:33:04.289Z,15.55
2022-08-19T22:35:33.371Z,15.43
2022-08-19T22:38:02.247Z,13.77
2022-08-19T22:40:30.852Z,14.82
2022-08-19T22:43:00.198Z,19.33
2022-08-19T22:45:28.592Z,16.80
2022-08-19T22:47:56.696Z,18.52
2022-08-19T22:50:26.772Z,16.75
2022-08-19T22:52:57.961Z,13.52
2022-08-19T22:55:26.669Z,18.88
2022-08-19T22:57:55.052Z,19.80
2022-08-19T23:00:23.448Z,12.02
2022-08-19T23:02:51.943Z,10.95
2022-08-19T23:05:22.168Z,13.65
2022-08-19T23:07:53.277Z,14.18
2022-08-19T23:10:27.284Z,16.33
2022-08-19T23:12:57.901Z,13.00
2022-08-19T23:15:26.972Z,14.40
2022-08-19T23:17:55.694Z,12.63
2022-08-19T23:20:27.175Z,15.82
2022-08-19T23:22:57.041Z,14.80
2022-08-19T23:25:27.099Z,16.05
2022-08-19T23:28:12.217Z,14.35
2022-08-19T23:30:42.585Z,11.35
2022-08-19T23:33:15.601Z,17.10
2022-08-19T23:35:43.429Z,11.60
2022-08-19T23:38:12.767Z,12.30
2022-08-19T23:40:40.790Z,16.15
2022-08-19T23:43:09.616Z,23.27
2022-08-19T23:45:38.829Z,11.35
2022-08-19T23:48:07.011Z,13.68
2022-08-19T23:50:35.684Z,13.95
2022-08-19T23:53:04.044Z,10.95
2022-08-19T23:55:34.054Z,12.30
2022-08-19T23:58:02.259Z,9.80
